New Franklin, Missouri
Current Conditions -  °F | °C
As of 5:55 PM on Monday 22 Dec 2014 (Local Time) from KVER Reporting Station
Moderate Rain Moderate Rain  
Wind Chill: 45°   Ceiling: 400
Heat Index: 47°   Visibility: 5mi
Dew Point: 47°   Wind: 6mph
Humidity: 100%   Direction: 170°S
Pressure: 29.47"   Gusts: NA
Location:  39.02°N, 92.74°W
Report Text: KVER 222355Z AUTO 17005KT 5SM RA OVC004 09/09 A2947 RMK AO2 P0005 60021 T00860086 10204 21110
Loading
Personal Weather Stations






























Interactive Weather Map New forecast layout! Learn more

10-Day Weather Forecast

Advertisements
Track Severe Weather on mobile